Wainwright, AK (99782)

3:55 AM AKDT on September 19, 2014 (GMT -0800)
Wainwright | Change Station
CLOSE
Current Station
Airport
Location: Wainwright,
Elevation: 39 ft
Nearby Weather Stations

Elev 39 ft 70.64 °N, 159.99 °W | Updated 4 minutes ago

Overcast
Overcast
36 °F
Feels Like 27 °F
N
13
Wind Variable Wind from NE

Today
High -- | Low -- °F
--% Chance of Precip.
Yesterday
High -- | Low -- °F
Precip. -- in
8:06 AM 8:54 PM
Waning Crescent, 19% visible
Pressure 29.58 in
Visibility 10.0 miles
Clouds Mostly Cloudy 700 ft
Overcast 4000 ft
Windchill 27 °F
Dew Point 32 °F
Humidity 87%
Rainfall 0.00 in
Snow Depth 2 in , 164 in , 1 in
UV 0 out of 12
Pollen Not available.
Air Quality Not available.
Flu Activity Not available.
SPECI PAWI 191151Z AUTO 05011KT 10SM BKN007 OVC040 02/00 A2958 RMK AO2 TSNO

More Conditions Fewer Conditions

Pressure 29.58 in
Visibility 10.0 miles
Clouds Mostly Cloudy 700 ft
Overcast 4000 ft
Windchill 27 °F
Dew Point 32 °F
Humidity 87%
Rainfall 0.00 in
Snow Depth 2 in , 164 in , 1 in
UV 0 out of 12
Pollen Not available.
Air Quality Not available.
Flu Activity Not available.
SPECI PAWI 191151Z AUTO 05011KT 10SM BKN007 OVC040 02/00 A2958 RMK AO2 TSNO

More Conditions Fewer Conditions

10-Day Weather Forecast

Almanac

Astronomy

Sep. 19, 2014 Rise Set
Actual Time 8:06 AM AKDT 8:54 PM AKDT
Civil Twilight 7:01 AM AKDT 9:57 PM AKDT
Nautical Twilight 5:36 AM AKDT 11:22 PM AKDT
Astronomical Twilight 2:39 AM AKDT 1:46 AM AKDT
Moon 1:56 AM AKDT 8:09 PM AKDT
Length of Visible Light 14h 56m
Length of Day
12h 47m
Tomorrow will be 8m 51s shorter.
Waning Crescent, 19% of the Moon is Illuminated
Today
Waning Crescent
Sep 24
New
Oct 1
First Quarter
Oct 8
Full
Oct 15
Last Quarter

Today's Extremes

State Highs State Lows

Community

WunderPhotos

Upload Photos

1,754,597 photos uploaded!

Nearby

Snow Depth

Station Depth Elevation
Atigun Pass 2 in 4800 ft
Nuka Glacier 164 in 1250 ft
Eagle Summit 1 in 3650 ft
MF Bradley River 3 in 2300 ft
Port Graham 0 in 300 ft

Earthquake Activity

City Distance Mag. Time & Date
No recent earthquake activity has been reported nearby.
Minimum magnitude displayed is 2.5.

Coastal Water Temperatures

Place Temperature
No Stations Reporting

Nearby Weather Stations